GLO1104 SBSP-SBCT
Flight info
| Callsign | GLO1104 |
|---|---|
| Flight time | 0h 36m |
| Altitude | 24000 |
| Route | SOVSI UZ85 RAXIT |
| Aircraft | B38M/M-SDE1FGHILORVWXY/HB1 |
Departure
| Time | 2026-05-05 15:46 |
|---|---|
| Airport | Congonhas–Deputado Freitas Nobre Airport (SBSP) |
Arrival
| Time | 2026-05-05 16:22 |
|---|---|
| Airport | Curitiba-Afonso Pena International Airport (SBCT) |
| Time | Latitude | Longitude | Altitude | Speed | Heading |
|---|---|---|---|---|---|
| 2026-05-05 15:22 | -23.62484 | -46.65982 | 2630 ft | 0 kts | 237° |
| 2026-05-05 15:31 | -23.62472 | -46.65963 | 2603 ft | 4 kts | 236° |
| 2026-05-05 15:32 | -23.62456 | -46.65939 | 2603 ft | 4 kts | 228° |
| 2026-05-05 15:32 | -23.62436 | -46.65922 | 2603 ft | 4 kts | 193° |
| 2026-05-05 15:32 | -23.62423 | -46.65923 | 2603 ft | 0 kts | 147° |
| 2026-05-05 15:40 | -23.62425 | -46.65922 | 2603 ft | 1 kts | 147° |
| 2026-05-05 15:40 | -23.62439 | -46.65912 | 2603 ft | 5 kts | 147° |
| 2026-05-05 15:40 | -23.62497 | -46.65872 | 2604 ft | 15 kts | 148° |
| 2026-05-05 15:41 | -23.62596 | -46.65803 | 2604 ft | 16 kts | 147° |
| 2026-05-05 15:41 | -23.62698 | -46.65733 | 2604 ft | 18 kts | 147° |
| 2026-05-05 15:41 | -23.62804 | -46.65660 | 2605 ft | 18 kts | 146° |
| 2026-05-05 15:41 | -23.62911 | -46.65586 | 2606 ft | 18 kts | 147° |
| 2026-05-05 15:42 | -23.63019 | -46.65523 | 2605 ft | 16 kts | 170° |
| 2026-05-05 15:42 | -23.63121 | -46.65476 | 2605 ft | 17 kts | 147° |
| 2026-05-05 15:42 | -23.63223 | -46.65406 | 2605 ft | 18 kts | 148° |
| 2026-05-05 15:42 | -23.63330 | -46.65332 | 2605 ft | 19 kts | 147° |
| 2026-05-05 15:43 | -23.63431 | -46.65261 | 2604 ft | 10 kts | 147° |
| 2026-05-05 15:43 | -23.63494 | -46.65213 | 2603 ft | 11 kts | 128° |
| 2026-05-05 15:43 | -23.63484 | -46.65145 | 2602 ft | 10 kts | 52° |
| 2026-05-05 15:43 | -23.63428 | -46.65121 | 2603 ft | 7 kts | 343° |
| 2026-05-05 15:44 | -23.63410 | -46.65132 | 2605 ft | 0 kts | 328° |
| 2026-05-05 15:45 | -23.63182 | -46.65289 | 2612 ft | 78 kts | 327° |
| 2026-05-05 15:45 | -23.62509 | -46.65756 | 2607 ft | 148 kts | 327° |
| 2026-05-05 15:45 | -23.61505 | -46.66459 | 2860 ft | 185 kts | 327° |
| 2026-05-05 15:46 | -23.60368 | -46.67262 | 3585 ft | 200 kts | 326° |
| 2026-05-05 15:46 | -23.59154 | -46.68136 | 4254 ft | 223 kts | 325° |
| 2026-05-05 15:46 | -23.58050 | -46.69410 | 4902 ft | 243 kts | 295° |
| 2026-05-05 15:46 | -23.57714 | -46.71254 | 5713 ft | 257 kts | 272° |
| 2026-05-05 15:47 | -23.57678 | -46.73254 | 6596 ft | 262 kts | 273° |
| 2026-05-05 15:47 | -23.57566 | -46.74526 | 7106 ft | 252 kts | 277° |
| 2026-05-05 15:47 | -23.57360 | -46.77101 | 8120 ft | 265 kts | 264° |
| 2026-05-05 15:47 | -23.57937 | -46.79045 | 8808 ft | 279 kts | 236° |
| 2026-05-05 15:48 | -23.59263 | -46.80579 | 9760 ft | 281 kts | 216° |
| 2026-05-05 15:48 | -23.60852 | -46.81892 | 10538 ft | 291 kts | 224° |
| 2026-05-05 15:48 | -23.62117 | -46.83699 | 11100 ft | 310 kts | 234° |
| 2026-05-05 15:48 | -23.63670 | -46.85374 | 11630 ft | 321 kts | 208° |
| 2026-05-05 15:49 | -23.65735 | -46.86348 | 12420 ft | 327 kts | 204° |
| 2026-05-05 15:49 | -23.67834 | -46.87386 | 13187 ft | 333 kts | 205° |
| 2026-05-05 15:49 | -23.69951 | -46.88455 | 13971 ft | 338 kts | 205° |
| 2026-05-05 15:49 | -23.72068 | -46.89534 | 14659 ft | 342 kts | 205° |
| 2026-05-05 15:50 | -23.74228 | -46.90640 | 15431 ft | 344 kts | 205° |
| 2026-05-05 15:50 | -23.76269 | -46.91995 | 16160 ft | 346 kts | 222° |
| 2026-05-05 15:50 | -23.77821 | -46.94000 | 16886 ft | 349 kts | 234° |
| 2026-05-05 15:50 | -23.79228 | -46.96186 | 17507 ft | 353 kts | 234° |
| 2026-05-05 15:51 | -23.80629 | -46.98402 | 18210 ft | 356 kts | 234° |
| 2026-05-05 15:51 | -23.82030 | -47.00647 | 18829 ft | 359 kts | 234° |
| 2026-05-05 15:51 | -23.83430 | -47.02909 | 19396 ft | 361 kts | 235° |
| 2026-05-05 15:51 | -23.84839 | -47.05196 | 19956 ft | 364 kts | 235° |
| 2026-05-05 15:52 | -23.86237 | -47.07470 | 20496 ft | 367 kts | 235° |
| 2026-05-05 15:52 | -23.87665 | -47.09795 | 21034 ft | 370 kts | 235° |
| 2026-05-05 15:52 | -23.89105 | -47.12141 | 21584 ft | 373 kts | 235° |
| 2026-05-05 15:52 | -23.90553 | -47.14501 | 22114 ft | 376 kts | 235° |
| 2026-05-05 15:53 | -23.92013 | -47.16883 | 22643 ft | 378 kts | 235° |
| 2026-05-05 15:53 | -23.93482 | -47.19281 | 23173 ft | 381 kts | 236° |
| 2026-05-05 15:53 | -23.94963 | -47.21700 | 23707 ft | 384 kts | 236° |
| 2026-05-05 15:53 | -23.96456 | -47.24137 | 24054 ft | 389 kts | 236° |
| 2026-05-05 15:54 | -23.97961 | -47.26596 | 24143 ft | 388 kts | 236° |
| 2026-05-05 15:54 | -23.99460 | -47.29048 | 24179 ft | 387 kts | 236° |
| 2026-05-05 15:54 | -24.00957 | -47.31497 | 24183 ft | 387 kts | 236° |
| 2026-05-05 15:54 | -24.02431 | -47.33910 | 24181 ft | 387 kts | 236° |
| 2026-05-05 15:55 | -24.03925 | -47.36357 | 24186 ft | 387 kts | 236° |
| 2026-05-05 15:55 | -24.05418 | -47.38803 | 24181 ft | 387 kts | 236° |
| 2026-05-05 15:55 | -24.06910 | -47.41249 | 24182 ft | 386 kts | 236° |
| 2026-05-05 15:55 | -24.08403 | -47.43697 | 24186 ft | 386 kts | 236° |
| 2026-05-05 15:56 | -24.09933 | -47.46112 | 24174 ft | 386 kts | 229° |
| 2026-05-05 15:56 | -24.11939 | -47.48036 | 24184 ft | 385 kts | 213° |
| 2026-05-05 15:56 | -24.14183 | -47.49651 | 24182 ft | 386 kts | 214° |
| 2026-05-05 15:56 | -24.16403 | -47.51239 | 24177 ft | 387 kts | 213° |
| 2026-05-05 15:57 | -24.18663 | -47.52835 | 24183 ft | 387 kts | 213° |
| 2026-05-05 15:57 | -24.20930 | -47.54422 | 24178 ft | 387 kts | 213° |
| 2026-05-05 15:57 | -24.23199 | -47.56004 | 24173 ft | 387 kts | 213° |
| 2026-05-05 15:57 | -24.25468 | -47.57584 | 24171 ft | 387 kts | 213° |
| 2026-05-05 15:58 | -24.27736 | -47.59163 | 24166 ft | 386 kts | 213° |
| 2026-05-05 15:58 | -24.30004 | -47.60742 | 24169 ft | 386 kts | 213° |
| 2026-05-05 15:58 | -24.32273 | -47.62322 | 24166 ft | 386 kts | 213° |
| 2026-05-05 15:58 | -24.34543 | -47.63904 | 24169 ft | 386 kts | 213° |
| 2026-05-05 15:59 | -24.36779 | -47.65463 | 24167 ft | 386 kts | 213° |
| 2026-05-05 15:59 | -24.39027 | -47.67030 | 24167 ft | 380 kts | 213° |
| 2026-05-05 15:59 | -24.41249 | -47.68582 | 24165 ft | 378 kts | 214° |
| 2026-05-05 15:59 | -24.43288 | -47.70380 | 24166 ft | 376 kts | 224° |
| 2026-05-05 16:00 | -24.45199 | -47.72347 | 24154 ft | 377 kts | 223° |
| 2026-05-05 16:00 | -24.47120 | -47.74300 | 24156 ft | 376 kts | 223° |
| 2026-05-05 16:00 | -24.49038 | -47.76254 | 24159 ft | 376 kts | 223° |
| 2026-05-05 16:00 | -24.50956 | -47.78208 | 24159 ft | 376 kts | 223° |
| 2026-05-05 16:01 | -24.52876 | -47.80166 | 24158 ft | 376 kts | 223° |
| 2026-05-05 16:01 | -24.54768 | -47.82096 | 24159 ft | 376 kts | 224° |
| 2026-05-05 16:01 | -24.56686 | -47.84053 | 24161 ft | 376 kts | 224° |
| 2026-05-05 16:01 | -24.58601 | -47.86008 | 24160 ft | 376 kts | 224° |
| 2026-05-05 16:02 | -24.60519 | -47.87967 | 24158 ft | 376 kts | 224° |
| 2026-05-05 16:02 | -24.62435 | -47.89925 | 24164 ft | 376 kts | 224° |
| 2026-05-05 16:02 | -24.64352 | -47.91884 | 24163 ft | 376 kts | 224° |
| 2026-05-05 16:02 | -24.66268 | -47.93843 | 24161 ft | 376 kts | 224° |
| 2026-05-05 16:03 | -24.68184 | -47.95804 | 24163 ft | 376 kts | 224° |
| 2026-05-05 16:03 | -24.70073 | -47.97738 | 24166 ft | 376 kts | 224° |
| 2026-05-05 16:03 | -24.71988 | -47.99698 | 24167 ft | 376 kts | 224° |
| 2026-05-05 16:03 | -24.73903 | -48.01660 | 24160 ft | 376 kts | 224° |
| 2026-05-05 16:04 | -24.75818 | -48.03624 | 24172 ft | 376 kts | 224° |
| 2026-05-05 16:04 | -24.77726 | -48.05580 | 24170 ft | 375 kts | 224° |
| 2026-05-05 16:04 | -24.79635 | -48.07539 | 24167 ft | 375 kts | 224° |
| 2026-05-05 16:04 | -24.81544 | -48.09497 | 24167 ft | 375 kts | 224° |
| 2026-05-05 16:05 | -24.83453 | -48.11456 | 24164 ft | 375 kts | 224° |
| 2026-05-05 16:05 | -24.85355 | -48.13411 | 24022 ft | 374 kts | 224° |
| 2026-05-05 16:05 | -24.87241 | -48.15349 | 23555 ft | 374 kts | 224° |
| 2026-05-05 16:05 | -24.89125 | -48.17285 | 23242 ft | 368 kts | 224° |
| 2026-05-05 16:06 | -24.90985 | -48.19198 | 22837 ft | 364 kts | 224° |
| 2026-05-05 16:06 | -24.92827 | -48.21093 | 22446 ft | 361 kts | 224° |
| 2026-05-05 16:06 | -24.94655 | -48.22976 | 22049 ft | 358 kts | 223° |
| 2026-05-05 16:06 | -24.96470 | -48.24845 | 21650 ft | 356 kts | 223° |
| 2026-05-05 16:07 | -24.98276 | -48.26706 | 21239 ft | 355 kts | 223° |
| 2026-05-05 16:07 | -25.00076 | -48.28563 | 20804 ft | 354 kts | 223° |
| 2026-05-05 16:07 | -25.01844 | -48.30387 | 20450 ft | 351 kts | 223° |
| 2026-05-05 16:07 | -25.03622 | -48.32222 | 20084 ft | 349 kts | 223° |
| 2026-05-05 16:08 | -25.05387 | -48.34045 | 19705 ft | 347 kts | 223° |
| 2026-05-05 16:08 | -25.07145 | -48.35862 | 19335 ft | 345 kts | 223° |
| 2026-05-05 16:08 | -25.08895 | -48.37670 | 18967 ft | 344 kts | 223° |
| 2026-05-05 16:08 | -25.10637 | -48.39471 | 18597 ft | 342 kts | 223° |
| 2026-05-05 16:09 | -25.12367 | -48.41274 | 18170 ft | 342 kts | 225° |
| 2026-05-05 16:09 | -25.13988 | -48.43199 | 17709 ft | 342 kts | 226° |
| 2026-05-05 16:09 | -25.15582 | -48.45098 | 17338 ft | 341 kts | 227° |
| 2026-05-05 16:09 | -25.17197 | -48.47010 | 16938 ft | 340 kts | 226° |
| 2026-05-05 16:10 | -25.18810 | -48.48914 | 16545 ft | 339 kts | 226° |
| 2026-05-05 16:10 | -25.20417 | -48.50810 | 16157 ft | 337 kts | 226° |
| 2026-05-05 16:10 | -25.22022 | -48.52703 | 15685 ft | 338 kts | 226° |
| 2026-05-05 16:10 | -25.23625 | -48.54595 | 15325 ft | 336 kts | 226° |
| 2026-05-05 16:11 | -25.25213 | -48.56480 | 14970 ft | 335 kts | 227° |
| 2026-05-05 16:11 | -25.29926 | -48.62093 | 14052 ft | 334 kts | 227° |
| 2026-05-05 16:12 | -25.31499 | -48.63967 | 13678 ft | 332 kts | 227° |
| 2026-05-05 16:12 | -25.34610 | -48.67677 | 12984 ft | 326 kts | 227° |
| 2026-05-05 16:13 | -25.39174 | -48.73123 | 12010 ft | 317 kts | 228° |
| 2026-05-05 16:13 | -25.40665 | -48.74905 | 11679 ft | 314 kts | 228° |
| 2026-05-05 16:13 | -25.42144 | -48.76672 | 11369 ft | 311 kts | 228° |
| 2026-05-05 16:14 | -25.45037 | -48.80130 | 10761 ft | 306 kts | 228° |
| 2026-05-05 16:14 | -25.47912 | -48.83572 | 10108 ft | 302 kts | 228° |
| 2026-05-05 16:15 | -25.50747 | -48.86966 | 9462 ft | 298 kts | 228° |
| 2026-05-05 16:15 | -25.53489 | -48.90254 | 8805 ft | 281 kts | 229° |
| 2026-05-05 16:16 | -25.56081 | -48.93361 | 8049 ft | 267 kts | 230° |
| 2026-05-05 16:16 | -25.58456 | -48.96157 | 7581 ft | 235 kts | 227° |
| 2026-05-05 16:17 | -25.60682 | -48.98544 | 7031 ft | 211 kts | 227° |
| 2026-05-05 16:17 | -25.61710 | -48.99654 | 6828 ft | 203 kts | 228° |
| 2026-05-05 16:18 | -25.63650 | -49.01759 | 6432 ft | 188 kts | 230° |
| 2026-05-05 16:18 | -25.64303 | -49.02946 | 6138 ft | 179 kts | 261° |
| 2026-05-05 16:18 | -25.63507 | -49.05453 | 5688 ft | 185 kts | 307° |
| 2026-05-05 16:19 | -25.62654 | -49.06528 | 5450 ft | 186 kts | 311° |
| 2026-05-05 16:19 | -25.61777 | -49.07531 | 5249 ft | 176 kts | 311° |
| 2026-05-05 16:19 | -25.60101 | -49.09430 | 4819 ft | 168 kts | 314° |
| 2026-05-05 16:20 | -25.58579 | -49.11137 | 4396 ft | 151 kts | 314° |
| 2026-05-05 16:20 | -25.57116 | -49.12784 | 3997 ft | 147 kts | 313° |
| 2026-05-05 16:21 | -25.55684 | -49.14401 | 3609 ft | 152 kts | 314° |
| 2026-05-05 16:22 | -25.53515 | -49.16834 | 3014 ft | 145 kts | 315° |
| 2026-05-05 16:22 | -25.52572 | -49.17886 | 2992 ft | 43 kts | 314° |
| 2026-05-05 16:23 | -25.52279 | -49.18184 | 2996 ft | 15 kts | 332° |
| 2026-05-05 16:23 | -25.52221 | -49.18222 | 2995 ft | 8 kts | 296° |
| 2026-05-05 16:23 | -25.52268 | -49.18221 | 2996 ft | 15 kts | 136° |
| 2026-05-05 16:24 | -25.52353 | -49.18128 | 2995 ft | 19 kts | 134° |
| 2026-05-05 16:24 | -25.52431 | -49.18041 | 2994 ft | 9 kts | 135° |
| 2026-05-05 16:24 | -25.52564 | -49.18004 | 2993 ft | 12 kts | 178° |